sensor_id;sensor_type;location;lat;lon;timestamp;P1;durP1;ratioP1;P2;durP2;ratioP2
52456;SDS011;38369;52.840;7.082;2023-03-13T00:02:10;36.50;;;7.85;;
52456;SDS011;38369;52.840;7.082;2023-03-13T00:04:36;39.25;;;8.27;;
52456;SDS011;38369;52.840;7.082;2023-03-13T00:07:02;28.92;;;6.78;;
52456;SDS011;38369;52.840;7.082;2023-03-13T00:09:28;37.92;;;7.45;;
52456;SDS011;38369;52.840;7.082;2023-03-13T00:11:55;36.70;;;7.07;;
52456;SDS011;38369;52.840;7.082;2023-03-13T00:14:21;32.38;;;8.00;;
52456;SDS011;38369;52.840;7.082;2023-03-13T00:16:47;38.25;;;7.90;;
52456;SDS011;38369;52.840;7.082;2023-03-13T00:19:13;39.72;;;9.48;;
52456;SDS011;38369;52.840;7.082;2023-03-13T00:21:39;51.53;;;7.72;;
52456;SDS011;38369;52.840;7.082;2023-03-13T00:24:06;41.35;;;9.13;;
52456;SDS011;38369;52.840;7.082;2023-03-13T00:26:32;29.25;;;7.03;;
52456;SDS011;38369;52.840;7.082;2023-03-13T00:28:58;34.05;;;8.50;;
52456;SDS011;38369;52.840;7.082;2023-03-13T00:31:25;36.10;;;7.10;;
52456;SDS011;38369;52.840;7.082;2023-03-13T00:33:52;31.52;;;7.18;;
52456;SDS011;38369;52.840;7.082;2023-03-13T00:36:23;26.45;;;6.65;;
52456;SDS011;38369;52.840;7.082;2023-03-13T00:38:50;33.92;;;6.78;;
52456;SDS011;38369;52.840;7.082;2023-03-13T00:41:17;30.55;;;7.25;;
52456;SDS011;38369;52.840;7.082;2023-03-13T00:43:44;34.40;;;7.47;;
52456;SDS011;38369;52.840;7.082;2023-03-13T00:46:11;25.42;;;6.38;;
52456;SDS011;38369;52.840;7.082;2023-03-13T00:48:37;30.33;;;6.88;;
52456;SDS011;38369;52.840;7.082;2023-03-13T00:51:03;36.92;;;7.90;;
52456;SDS011;38369;52.840;7.082;2023-03-13T00:53:30;24.35;;;7.70;;
52456;SDS011;38369;52.840;7.082;2023-03-13T00:58:22;22.85;;;6.55;;
52456;SDS011;38369;52.840;7.082;2023-03-13T01:00:49;38.75;;;8.07;;
52456;SDS011;38369;52.840;7.082;2023-03-13T01:03:15;32.10;;;7.63;;
52456;SDS011;38369;52.840;7.082;2023-03-13T01:05:41;35.72;;;7.00;;
52456;SDS011;38369;52.840;7.082;2023-03-13T01:08:07;29.80;;;9.52;;
52456;SDS011;38369;52.840;7.082;2023-03-13T01:10:33;25.60;;;6.50;;
52456;SDS011;38369;52.840;7.082;2023-03-13T01:13:00;28.60;;;6.22;;
52456;SDS011;38369;52.840;7.082;2023-03-13T01:15:26;37.33;;;7.47;;
52456;SDS011;38369;52.840;7.082;2023-03-13T01:17:52;30.48;;;6.97;;
52456;SDS011;38369;52.840;7.082;2023-03-13T01:20:18;30.25;;;7.30;;
52456;SDS011;38369;52.840;7.082;2023-03-13T01:22:44;24.67;;;6.55;;
52456;SDS011;38369;52.840;7.082;2023-03-13T01:25:10;20.13;;;6.07;;
52456;SDS011;38369;52.840;7.082;2023-03-13T01:27:36;32.78;;;7.80;;
52456;SDS011;38369;52.840;7.082;2023-03-13T01:30:02;23.35;;;7.38;;
52456;SDS011;38369;52.840;7.082;2023-03-13T01:32:28;34.72;;;6.93;;
52456;SDS011;38369;52.840;7.082;2023-03-13T01:34:54;35.63;;;6.80;;
52456;SDS011;38369;52.840;7.082;2023-03-13T01:37:20;32.40;;;7.68;;
52456;SDS011;38369;52.840;7.082;2023-03-13T01:39:46;37.58;;;7.60;;
52456;SDS011;38369;52.840;7.082;2023-03-13T01:42:12;39.65;;;8.38;;
52456;SDS011;38369;52.840;7.082;2023-03-13T01:44:55;29.10;;;6.85;;
52456;SDS011;38369;52.840;7.082;2023-03-13T01:47:22;26.33;;;6.50;;
52456;SDS011;38369;52.840;7.082;2023-03-13T01:49:48;30.67;;;7.28;;
52456;SDS011;38369;52.840;7.082;2023-03-13T01:52:19;26.30;;;7.97;;
52456;SDS011;38369;52.840;7.082;2023-03-13T01:54:48;36.03;;;7.10;;
52456;SDS011;38369;52.840;7.082;2023-03-13T01:59:50;36.17;;;9.18;;
52456;SDS011;38369;52.840;7.082;2023-03-13T02:02:17;24.73;;;7.15;;
52456;SDS011;38369;52.840;7.082;2023-03-13T02:04:44;30.00;;;7.03;;
52456;SDS011;38369;52.840;7.082;2023-03-13T02:07:16;35.63;;;7.00;;
52456;SDS011;38369;52.840;7.082;2023-03-13T02:09:43;27.42;;;7.40;;
52456;SDS011;38369;52.840;7.082;2023-03-13T02:12:34;31.70;;;7.65;;
52456;SDS011;38369;52.840;7.082;2023-03-13T02:15:02;26.92;;;7.32;;
52456;SDS011;38369;52.840;7.082;2023-03-13T02:17:29;32.90;;;8.13;;
52456;SDS011;38369;52.840;7.082;2023-03-13T02:19:55;27.65;;;7.60;;
52456;SDS011;38369;52.840;7.082;2023-03-13T02:25:19;24.50;;;7.03;;
52456;SDS011;38369;52.840;7.082;2023-03-13T02:27:47;29.33;;;7.75;;
52456;SDS011;38369;52.840;7.082;2023-03-13T02:30:13;34.28;;;7.50;;
52456;SDS011;38369;52.840;7.082;2023-03-13T02:32:39;29.25;;;7.68;;
52456;SDS011;38369;52.840;7.082;2023-03-13T02:35:11;24.10;;;7.93;;
52456;SDS011;38369;52.840;7.082;2023-03-13T02:37:37;21.20;;;6.55;;
52456;SDS011;38369;52.840;7.082;2023-03-13T02:40:05;20.77;;;6.72;;
52456;SDS011;38369;52.840;7.082;2023-03-13T02:42:33;25.00;;;8.63;;
52456;SDS011;38369;52.840;7.082;2023-03-13T02:45:00;36.88;;;8.55;;
52456;SDS011;38369;52.840;7.082;2023-03-13T02:47:26;29.85;;;8.32;;
52456;SDS011;38369;52.840;7.082;2023-03-13T02:49:52;24.15;;;7.55;;
52456;SDS011;38369;52.840;7.082;2023-03-13T02:52:37;24.50;;;7.00;;
52456;SDS011;38369;52.840;7.082;2023-03-13T02:55:06;24.67;;;7.15;;
52456;SDS011;38369;52.840;7.082;2023-03-13T02:57:33;21.03;;;6.93;;
52456;SDS011;38369;52.840;7.082;2023-03-13T02:59:59;22.80;;;7.65;;
52456;SDS011;38369;52.840;7.082;2023-03-13T03:02:26;21.17;;;6.22;;
52456;SDS011;38369;52.840;7.082;2023-03-13T03:04:52;24.42;;;6.65;;
52456;SDS011;38369;52.840;7.082;2023-03-13T03:07:18;23.45;;;6.50;;
52456;SDS011;38369;52.840;7.082;2023-03-13T03:09:44;19.63;;;6.38;;
52456;SDS011;38369;52.840;7.082;2023-03-13T03:12:10;15.13;;;5.85;;
52456;SDS011;38369;52.840;7.082;2023-03-13T03:14:36;17.35;;;6.43;;
52456;SDS011;38369;52.840;7.082;2023-03-13T03:17:02;19.73;;;6.47;;
52456;SDS011;38369;52.840;7.082;2023-03-13T03:19:28;15.95;;;7.25;;
52456;SDS011;38369;52.840;7.082;2023-03-13T03:21:54;25.20;;;7.30;;
52456;SDS011;38369;52.840;7.082;2023-03-13T03:24:20;17.35;;;6.15;;
52456;SDS011;38369;52.840;7.082;2023-03-13T03:26:46;13.45;;;5.05;;
52456;SDS011;38369;52.840;7.082;2023-03-13T03:29:12;19.25;;;6.75;;
52456;SDS011;38369;52.840;7.082;2023-03-13T03:31:39;18.48;;;6.97;;
52456;SDS011;38369;52.840;7.082;2023-03-13T03:34:05;14.43;;;5.22;;
52456;SDS011;38369;52.840;7.082;2023-03-13T03:36:31;13.75;;;5.18;;
52456;SDS011;38369;52.840;7.082;2023-03-13T03:38:57;13.75;;;5.47;;
52456;SDS011;38369;52.840;7.082;2023-03-13T03:41:23;13.55;;;5.25;;
52456;SDS011;38369;52.840;7.082;2023-03-13T03:43:49;14.00;;;5.50;;
52456;SDS011;38369;52.840;7.082;2023-03-13T03:46:15;12.70;;;5.15;;
52456;SDS011;38369;52.840;7.082;2023-03-13T03:48:41;11.15;;;5.15;;
52456;SDS011;38369;52.840;7.082;2023-03-13T03:51:07;12.80;;;5.30;;
52456;SDS011;38369;52.840;7.082;2023-03-13T03:53:33;16.90;;;5.95;;
52456;SDS011;38369;52.840;7.082;2023-03-13T03:56:00;8.60;;;5.00;;
52456;SDS011;38369;52.840;7.082;2023-03-13T03:58:26;9.40;;;4.60;;
52456;SDS011;38369;52.840;7.082;2023-03-13T04:00:52;13.90;;;5.57;;
52456;SDS011;38369;52.840;7.082;2023-03-13T04:03:21;14.77;;;5.43;;
52456;SDS011;38369;52.840;7.082;2023-03-13T04:05:47;11.77;;;5.18;;
52456;SDS011;38369;52.840;7.082;2023-03-13T04:08:13;14.18;;;6.03;;
52456;SDS011;38369;52.840;7.082;2023-03-13T04:10:39;8.93;;;5.18;;
52456;SDS011;38369;52.840;7.082;2023-03-13T04:13:06;10.30;;;5.43;;
52456;SDS011;38369;52.840;7.082;2023-03-13T04:15:32;10.02;;;5.45;;
52456;SDS011;38369;52.840;7.082;2023-03-13T04:17:58;11.70;;;5.30;;
52456;SDS011;38369;52.840;7.082;2023-03-13T04:20:25;11.13;;;6.05;;
52456;SDS011;38369;52.840;7.082;2023-03-13T04:22:52;10.32;;;5.68;;
52456;SDS011;38369;52.840;7.082;2023-03-13T04:25:19;11.77;;;5.38;;
52456;SDS011;38369;52.840;7.082;2023-03-13T04:27:45;10.35;;;5.10;;
52456;SDS011;38369;52.840;7.082;2023-03-13T04:30:11;11.43;;;5.47;;
52456;SDS011;38369;52.840;7.082;2023-03-13T04:32:37;11.48;;;6.18;;
52456;SDS011;38369;52.840;7.082;2023-03-13T04:35:03;16.88;;;6.95;;
52456;SDS011;38369;52.840;7.082;2023-03-13T04:37:29;12.57;;;6.60;;
52456;SDS011;38369;52.840;7.082;2023-03-13T04:39:55;10.63;;;6.03;;
52456;SDS011;38369;52.840;7.082;2023-03-13T04:42:21;9.80;;;6.05;;
52456;SDS011;38369;52.840;7.082;2023-03-13T04:44:48;13.80;;;6.22;;
52456;SDS011;38369;52.840;7.082;2023-03-13T04:47:14;10.80;;;6.45;;
52456;SDS011;38369;52.840;7.082;2023-03-13T04:49:40;12.18;;;6.32;;
52456;SDS011;38369;52.840;7.082;2023-03-13T04:52:06;11.18;;;7.05;;
52456;SDS011;38369;52.840;7.082;2023-03-13T04:54:32;13.40;;;6.90;;
52456;SDS011;38369;52.840;7.082;2023-03-13T04:56:58;10.27;;;6.72;;
52456;SDS011;38369;52.840;7.082;2023-03-13T04:59:24;13.00;;;7.72;;
52456;SDS011;38369;52.840;7.082;2023-03-13T05:01:50;8.50;;;6.47;;
52456;SDS011;38369;52.840;7.082;2023-03-13T05:04:16;11.80;;;7.47;;
52456;SDS011;38369;52.840;7.082;2023-03-13T05:06:42;10.52;;;6.38;;
52456;SDS011;38369;52.840;7.082;2023-03-13T05:09:08;10.75;;;5.95;;
52456;SDS011;38369;52.840;7.082;2023-03-13T05:11:34;8.68;;;6.15;;
52456;SDS011;38369;52.840;7.082;2023-03-13T05:14:01;8.27;;;6.18;;
52456;SDS011;38369;52.840;7.082;2023-03-13T05:16:28;7.43;;;4.85;;
52456;SDS011;38369;52.840;7.082;2023-03-13T05:18:54;7.97;;;5.28;;
52456;SDS011;38369;52.840;7.082;2023-03-13T05:21:20;7.82;;;5.18;;
52456;SDS011;38369;52.840;7.082;2023-03-13T05:23:46;10.45;;;5.45;;
52456;SDS011;38369;52.840;7.082;2023-03-13T05:26:12;6.75;;;4.68;;
52456;SDS011;38369;52.840;7.082;2023-03-13T05:28:38;7.15;;;4.97;;
52456;SDS011;38369;52.840;7.082;2023-03-13T05:31:04;7.13;;;5.07;;
52456;SDS011;38369;52.840;7.082;2023-03-13T05:33:30;6.38;;;4.93;;
52456;SDS011;38369;52.840;7.082;2023-03-13T05:35:56;6.32;;;4.82;;
52456;SDS011;38369;52.840;7.082;2023-03-13T05:38:22;6.75;;;5.00;;
52456;SDS011;38369;52.840;7.082;2023-03-13T05:40:48;7.78;;;5.32;;
52456;SDS011;38369;52.840;7.082;2023-03-13T05:43:14;8.95;;;5.63;;
52456;SDS011;38369;52.840;7.082;2023-03-13T05:45:40;7.60;;;5.70;;
52456;SDS011;38369;52.840;7.082;2023-03-13T05:48:06;10.35;;;4.75;;
52456;SDS011;38369;52.840;7.082;2023-03-13T05:50:32;7.10;;;4.90;;
52456;SDS011;38369;52.840;7.082;2023-03-13T05:52:58;8.00;;;5.25;;
52456;SDS011;38369;52.840;7.082;2023-03-13T05:55:24;7.15;;;5.47;;
52456;SDS011;38369;52.840;7.082;2023-03-13T05:57:50;10.15;;;6.30;;
52456;SDS011;38369;52.840;7.082;2023-03-13T06:00:17;10.65;;;5.90;;
52456;SDS011;38369;52.840;7.082;2023-03-13T06:02:43;9.13;;;6.43;;
52456;SDS011;38369;52.840;7.082;2023-03-13T06:05:09;8.35;;;5.82;;
52456;SDS011;38369;52.840;7.082;2023-03-13T06:07:36;8.15;;;6.13;;
52456;SDS011;38369;52.840;7.082;2023-03-13T06:10:02;10.02;;;6.85;;
52456;SDS011;38369;52.840;7.082;2023-03-13T06:12:28;11.70;;;7.05;;
52456;SDS011;38369;52.840;7.082;2023-03-13T06:14:54;11.75;;;6.18;;
52456;SDS011;38369;52.840;7.082;2023-03-13T06:17:20;9.27;;;6.55;;
52456;SDS011;38369;52.840;7.082;2023-03-13T06:19:46;10.00;;;6.47;;
52456;SDS011;38369;52.840;7.082;2023-03-13T06:22:12;9.85;;;7.00;;
52456;SDS011;38369;52.840;7.082;2023-03-13T06:24:40;12.10;;;8.13;;
52456;SDS011;38369;52.840;7.082;2023-03-13T06:27:08;11.05;;;8.02;;
52456;SDS011;38369;52.840;7.082;2023-03-13T06:29:34;11.40;;;7.65;;
52456;SDS011;38369;52.840;7.082;2023-03-13T06:32:00;13.55;;;8.30;;
52456;SDS011;38369;52.840;7.082;2023-03-13T06:34:26;12.32;;;8.10;;
52456;SDS011;38369;52.840;7.082;2023-03-13T06:36:52;16.15;;;8.32;;
52456;SDS011;38369;52.840;7.082;2023-03-13T06:39:19;16.73;;;9.32;;
52456;SDS011;38369;52.840;7.082;2023-03-13T06:41:45;14.07;;;9.98;;
52456;SDS011;38369;52.840;7.082;2023-03-13T06:44:11;17.23;;;9.45;;
52456;SDS011;38369;52.840;7.082;2023-03-13T06:46:37;15.48;;;9.10;;
52456;SDS011;38369;52.840;7.082;2023-03-13T06:49:03;15.48;;;8.02;;
52456;SDS011;38369;52.840;7.082;2023-03-13T06:51:29;17.75;;;9.88;;
52456;SDS011;38369;52.840;7.082;2023-03-13T06:53:56;13.43;;;8.80;;
52456;SDS011;38369;52.840;7.082;2023-03-13T06:56:22;18.25;;;8.20;;
52456;SDS011;38369;52.840;7.082;2023-03-13T06:58:48;16.15;;;7.90;;
52456;SDS011;38369;52.840;7.082;2023-03-13T07:01:15;14.63;;;7.32;;
52456;SDS011;38369;52.840;7.082;2023-03-13T07:03:41;14.05;;;7.53;;
52456;SDS011;38369;52.840;7.082;2023-03-13T07:06:08;12.65;;;7.47;;
52456;SDS011;38369;52.840;7.082;2023-03-13T07:08:35;12.30;;;7.63;;
52456;SDS011;38369;52.840;7.082;2023-03-13T07:11:02;11.95;;;7.15;;
52456;SDS011;38369;52.840;7.082;2023-03-13T07:13:29;14.07;;;7.88;;
52456;SDS011;38369;52.840;7.082;2023-03-13T07:15:58;13.50;;;7.53;;
52456;SDS011;38369;52.840;7.082;2023-03-13T07:18:24;12.40;;;7.10;;
52456;SDS011;38369;52.840;7.082;2023-03-13T07:20:51;14.10;;;6.70;;
52456;SDS011;38369;52.840;7.082;2023-03-13T07:23:18;17.85;;;7.13;;
52456;SDS011;38369;52.840;7.082;2023-03-13T07:25:51;15.15;;;7.22;;
52456;SDS011;38369;52.840;7.082;2023-03-13T07:28:17;11.32;;;5.80;;
52456;SDS011;38369;52.840;7.082;2023-03-13T07:30:43;10.70;;;6.00;;
52456;SDS011;38369;52.840;7.082;2023-03-13T07:33:09;11.80;;;6.75;;
52456;SDS011;38369;52.840;7.082;2023-03-13T07:35:35;12.27;;;5.97;;
52456;SDS011;38369;52.840;7.082;2023-03-13T07:38:01;14.55;;;6.28;;
52456;SDS011;38369;52.840;7.082;2023-03-13T07:40:27;15.88;;;6.70;;
52456;SDS011;38369;52.840;7.082;2023-03-13T07:42:53;11.15;;;6.40;;
52456;SDS011;38369;52.840;7.082;2023-03-13T07:45:19;13.43;;;6.05;;
52456;SDS011;38369;52.840;7.082;2023-03-13T07:47:45;19.63;;;7.65;;
52456;SDS011;38369;52.840;7.082;2023-03-13T07:50:11;12.68;;;5.82;;
52456;SDS011;38369;52.840;7.082;2023-03-13T07:52:37;12.50;;;5.65;;
52456;SDS011;38369;52.840;7.082;2023-03-13T07:55:03;15.27;;;6.60;;
52456;SDS011;38369;52.840;7.082;2023-03-13T07:57:30;13.40;;;7.30;;
52456;SDS011;38369;52.840;7.082;2023-03-13T07:59:56;9.10;;;4.85;;
52456;SDS011;38369;52.840;7.082;2023-03-13T08:02:22;7.22;;;4.95;;
52456;SDS011;38369;52.840;7.082;2023-03-13T08:04:51;13.70;;;6.03;;
52456;SDS011;38369;52.840;7.082;2023-03-13T08:07:17;12.38;;;5.88;;
52456;SDS011;38369;52.840;7.082;2023-03-13T08:09:43;12.77;;;5.90;;
52456;SDS011;38369;52.840;7.082;2023-03-13T08:12:10;10.35;;;5.50;;
52456;SDS011;38369;52.840;7.082;2023-03-13T08:14:36;9.95;;;5.35;;
52456;SDS011;38369;52.840;7.082;2023-03-13T08:17:02;9.38;;;5.95;;
52456;SDS011;38369;52.840;7.082;2023-03-13T08:19:28;14.30;;;7.18;;
52456;SDS011;38369;52.840;7.082;2023-03-13T08:21:54;13.90;;;5.85;;
52456;SDS011;38369;52.840;7.082;2023-03-13T08:24:20;9.98;;;6.78;;
52456;SDS011;38369;52.840;7.082;2023-03-13T08:26:46;12.00;;;6.68;;
52456;SDS011;38369;52.840;7.082;2023-03-13T08:29:13;10.27;;;6.57;;
52456;SDS011;38369;52.840;7.082;2023-03-13T08:31:46;15.95;;;7.53;;
52456;SDS011;38369;52.840;7.082;2023-03-13T08:34:13;12.93;;;7.35;;
52456;SDS011;38369;52.840;7.082;2023-03-13T08:36:39;11.02;;;6.88;;
52456;SDS011;38369;52.840;7.082;2023-03-13T08:39:08;12.05;;;7.50;;
52456;SDS011;38369;52.840;7.082;2023-03-13T08:41:34;14.48;;;7.10;;
52456;SDS011;38369;52.840;7.082;2023-03-13T08:44:01;11.68;;;6.20;;
52456;SDS011;38369;52.840;7.082;2023-03-13T08:46:29;9.95;;;6.80;;
52456;SDS011;38369;52.840;7.082;2023-03-13T08:48:55;11.02;;;5.70;;
52456;SDS011;38369;52.840;7.082;2023-03-13T08:51:22;12.13;;;7.07;;
52456;SDS011;38369;52.840;7.082;2023-03-13T08:53:49;10.32;;;5.55;;
52456;SDS011;38369;52.840;7.082;2023-03-13T08:56:16;10.85;;;6.32;;
52456;SDS011;38369;52.840;7.082;2023-03-13T08:58:43;9.93;;;5.20;;
52456;SDS011;38369;52.840;7.082;2023-03-13T09:01:10;8.07;;;5.15;;
52456;SDS011;38369;52.840;7.082;2023-03-13T09:03:36;5.82;;;4.32;;
52456;SDS011;38369;52.840;7.082;2023-03-13T09:06:03;10.40;;;4.20;;
52456;SDS011;38369;52.840;7.082;2023-03-13T09:08:29;9.40;;;3.95;;
52456;SDS011;38369;52.840;7.082;2023-03-13T09:10:56;8.20;;;3.78;;
52456;SDS011;38369;52.840;7.082;2023-03-13T09:13:23;10.43;;;4.43;;
52456;SDS011;38369;52.840;7.082;2023-03-13T09:15:59;11.35;;;3.30;;
52456;SDS011;38369;52.840;7.082;2023-03-13T09:18:25;6.47;;;2.80;;
52456;SDS011;38369;52.840;7.082;2023-03-13T09:20:52;6.05;;;3.20;;
52456;SDS011;38369;52.840;7.082;2023-03-13T09:23:18;5.82;;;2.75;;
52456;SDS011;38369;52.840;7.082;2023-03-13T09:25:45;3.30;;;2.25;;
52456;SDS011;38369;52.840;7.082;2023-03-13T09:28:11;7.65;;;2.80;;
52456;SDS011;38369;52.840;7.082;2023-03-13T09:30:37;6.60;;;3.38;;
52456;SDS011;38369;52.840;7.082;2023-03-13T09:33:03;4.20;;;2.15;;
52456;SDS011;38369;52.840;7.082;2023-03-13T09:35:29;6.85;;;2.60;;
52456;SDS011;38369;52.840;7.082;2023-03-13T09:37:55;4.85;;;2.00;;
52456;SDS011;38369;52.840;7.082;2023-03-13T09:40:22;2.50;;;2.00;;
52456;SDS011;38369;52.840;7.082;2023-03-13T09:42:50;5.22;;;1.80;;
52456;SDS011;38369;52.840;7.082;2023-03-13T09:45:17;6.45;;;2.33;;
52456;SDS011;38369;52.840;7.082;2023-03-13T09:47:47;8.55;;;2.17;;
52456;SDS011;38369;52.840;7.082;2023-03-13T09:50:26;6.13;;;2.08;;
52456;SDS011;38369;52.840;7.082;2023-03-13T09:52:54;4.70;;;2.00;;
52456;SDS011;38369;52.840;7.082;2023-03-13T09:55:22;5.38;;;2.00;;
52456;SDS011;38369;52.840;7.082;2023-03-13T09:57:53;5.78;;;2.55;;
52456;SDS011;38369;52.840;7.082;2023-03-13T10:02:56;2.78;;;1.58;;
52456;SDS011;38369;52.840;7.082;2023-03-13T10:05:24;3.55;;;1.70;;
52456;SDS011;38369;52.840;7.082;2023-03-13T10:07:53;6.45;;;1.75;;
52456;SDS011;38369;52.840;7.082;2023-03-13T10:10:27;4.07;;;1.90;;
52456;SDS011;38369;52.840;7.082;2023-03-13T10:12:56;5.97;;;2.30;;
52456;SDS011;38369;52.840;7.082;2023-03-13T10:18:27;4.35;;;1.73;;
52456;SDS011;38369;52.840;7.082;2023-03-13T10:20:56;6.90;;;2.08;;
52456;SDS011;38369;52.840;7.082;2023-03-13T10:23:31;12.17;;;2.70;;
52456;SDS011;38369;52.840;7.082;2023-03-13T10:26:00;5.78;;;2.10;;
52456;SDS011;38369;52.840;7.082;2023-03-13T10:28:26;5.35;;;2.00;;
52456;SDS011;38369;52.840;7.082;2023-03-13T10:31:01;6.35;;;2.00;;
52456;SDS011;38369;52.840;7.082;2023-03-13T10:33:30;5.40;;;2.00;;
52456;SDS011;38369;52.840;7.082;2023-03-13T10:36:10;4.95;;;2.20;;
52456;SDS011;38369;52.840;7.082;2023-03-13T10:38:49;4.80;;;2.33;;
52456;SDS011;38369;52.840;7.082;2023-03-13T10:41:34;5.72;;;2.60;;
52456;SDS011;38369;52.840;7.082;2023-03-13T10:44:17;7.20;;;2.55;;
52456;SDS011;38369;52.840;7.082;2023-03-13T10:46:44;4.35;;;1.65;;
52456;SDS011;38369;52.840;7.082;2023-03-13T10:49:18;6.60;;;2.03;;
52456;SDS011;38369;52.840;7.082;2023-03-13T10:51:45;6.22;;;2.45;;
52456;SDS011;38369;52.840;7.082;2023-03-13T10:56:51;5.72;;;1.80;;
52456;SDS011;38369;52.840;7.082;2023-03-13T10:59:31;7.55;;;3.25;;
52456;SDS011;38369;52.840;7.082;2023-03-13T11:01:59;7.82;;;2.05;;
52456;SDS011;38369;52.840;7.082;2023-03-13T11:07:03;7.18;;;2.10;;
52456;SDS011;38369;52.840;7.082;2023-03-13T11:09:29;6.22;;;2.05;;
52456;SDS011;38369;52.840;7.082;2023-03-13T11:12:17;8.90;;;2.50;;
52456;SDS011;38369;52.840;7.082;2023-03-13T11:14:43;10.80;;;2.15;;
52456;SDS011;38369;52.840;7.082;2023-03-13T11:27:18;9.43;;;1.58;;
52456;SDS011;38369;52.840;7.082;2023-03-13T11:29:53;6.45;;;1.52;;
52456;SDS011;38369;52.840;7.082;2023-03-13T11:32:30;6.75;;;2.13;;
52456;SDS011;38369;52.840;7.082;2023-03-13T11:34:59;7.78;;;2.22;;
52456;SDS011;38369;52.840;7.082;2023-03-13T11:37:27;6.32;;;1.52;;
52456;SDS011;38369;52.840;7.082;2023-03-13T11:50:50;2.85;;;0.77;;
52456;SDS011;38369;52.840;7.082;2023-03-13T11:53:00;4.40;;;1.73;;
52456;SDS011;38369;52.840;7.082;2023-03-13T12:00:36;3.72;;;1.00;;
52456;SDS011;38369;52.840;7.082;2023-03-13T12:03:08;3.78;;;1.50;;
52456;SDS011;38369;52.840;7.082;2023-03-13T12:05:39;4.15;;;1.30;;
52456;SDS011;38369;52.840;7.082;2023-03-13T12:08:10;6.13;;;1.50;;
52456;SDS011;38369;52.840;7.082;2023-03-13T12:10:43;5.47;;;1.52;;
52456;SDS011;38369;52.840;7.082;2023-03-13T12:13:19;4.78;;;1.80;;
52456;SDS011;38369;52.840;7.082;2023-03-13T12:15:47;6.90;;;1.88;;
52456;SDS011;38369;52.840;7.082;2023-03-13T12:18:17;3.67;;;1.40;;
52456;SDS011;38369;52.840;7.082;2023-03-13T12:26:03;5.18;;;1.42;;
52456;SDS011;38369;52.840;7.082;2023-03-13T12:28:40;5.20;;;1.40;;
52456;SDS011;38369;52.840;7.082;2023-03-13T12:38:54;11.30;;;1.90;;
52456;SDS011;38369;52.840;7.082;2023-03-13T12:41:45;3.33;;;1.52;;
52456;SDS011;38369;52.840;7.082;2023-03-13T12:44:14;7.38;;;2.30;;
52456;SDS011;38369;52.840;7.082;2023-03-13T13:01:53;4.50;;;1.17;;
52456;SDS011;38369;52.840;7.082;2023-03-13T13:04:21;4.22;;;1.33;;
52456;SDS011;38369;52.840;7.082;2023-03-13T13:06:53;8.32;;;1.02;;
52456;SDS011;38369;52.840;7.082;2023-03-13T13:11:46;4.40;;;1.58;;
52456;SDS011;38369;52.840;7.082;2023-03-13T13:16:49;11.15;;;1.58;;
52456;SDS011;38369;52.840;7.082;2023-03-13T13:24:49;6.85;;;1.70;;
52456;SDS011;38369;52.840;7.082;2023-03-13T13:29:59;2.90;;;1.20;;
52456;SDS011;38369;52.840;7.082;2023-03-13T13:32:30;5.53;;;1.45;;
52456;SDS011;38369;52.840;7.082;2023-03-13T13:35:00;2.60;;;0.88;;
52456;SDS011;38369;52.840;7.082;2023-03-13T13:37:27;6.90;;;1.95;;
52456;SDS011;38369;52.840;7.082;2023-03-13T13:39:53;6.10;;;1.40;;
52456;SDS011;38369;52.840;7.082;2023-03-13T13:47:45;2.08;;;1.40;;
52456;SDS011;38369;52.840;7.082;2023-03-13T13:50:18;6.03;;;1.58;;
52456;SDS011;38369;52.840;7.082;2023-03-13T13:52:45;5.50;;;1.42;;
52456;SDS011;38369;52.840;7.082;2023-03-13T13:55:28;3.92;;;1.52;;
52456;SDS011;38369;52.840;7.082;2023-03-13T13:58:01;9.85;;;2.83;;
52456;SDS011;38369;52.840;7.082;2023-03-13T14:00:33;7.80;;;1.60;;
52456;SDS011;38369;52.840;7.082;2023-03-13T14:02:59;8.50;;;2.08;;
52456;SDS011;38369;52.840;7.082;2023-03-13T14:05:26;7.13;;;1.63;;
52456;SDS011;38369;52.840;7.082;2023-03-13T14:08:00;5.68;;;1.52;;
52456;SDS011;38369;52.840;7.082;2023-03-13T14:12:58;5.47;;;1.75;;
52456;SDS011;38369;52.840;7.082;2023-03-13T14:15:25;9.07;;;1.88;;
52456;SDS011;38369;52.840;7.082;2023-03-13T14:17:53;5.95;;;1.83;;
52456;SDS011;38369;52.840;7.082;2023-03-13T14:22:57;11.45;;;2.60;;
52456;SDS011;38369;52.840;7.082;2023-03-13T14:25:24;6.15;;;2.00;;
52456;SDS011;38369;52.840;7.082;2023-03-13T14:27:51;5.65;;;2.05;;
52456;SDS011;38369;52.840;7.082;2023-03-13T14:30:18;9.20;;;2.28;;
52456;SDS011;38369;52.840;7.082;2023-03-13T14:32:45;9.63;;;2.50;;
52456;SDS011;38369;52.840;7.082;2023-03-13T14:35:13;8.98;;;2.10;;
52456;SDS011;38369;52.840;7.082;2023-03-13T14:37:40;6.60;;;1.55;;
52456;SDS011;38369;52.840;7.082;2023-03-13T14:40:08;8.60;;;2.38;;
52456;SDS011;38369;52.840;7.082;2023-03-13T14:42:40;6.28;;;1.67;;
52456;SDS011;38369;52.840;7.082;2023-03-13T14:45:12;10.13;;;2.25;;
52456;SDS011;38369;52.840;7.082;2023-03-13T14:47:38;9.40;;;2.08;;
52456;SDS011;38369;52.840;7.082;2023-03-13T14:50:08;8.18;;;2.20;;
52456;SDS011;38369;52.840;7.082;2023-03-13T14:52:36;8.07;;;2.38;;
52456;SDS011;38369;52.840;7.082;2023-03-13T14:57:30;8.20;;;2.40;;
52456;SDS011;38369;52.840;7.082;2023-03-13T15:02:41;6.78;;;2.03;;
52456;SDS011;38369;52.840;7.082;2023-03-13T15:07:52;5.78;;;1.70;;
52456;SDS011;38369;52.840;7.082;2023-03-13T15:10:40;7.38;;;1.80;;
52456;SDS011;38369;52.840;7.082;2023-03-13T15:15:50;8.10;;;1.98;;
52456;SDS011;38369;52.840;7.082;2023-03-13T15:20:52;6.50;;;1.98;;
52456;SDS011;38369;52.840;7.082;2023-03-13T15:23:19;8.50;;;1.77;;
52456;SDS011;38369;52.840;7.082;2023-03-13T15:25:45;7.22;;;1.92;;
52456;SDS011;38369;52.840;7.082;2023-03-13T15:28:15;9.15;;;2.40;;
52456;SDS011;38369;52.840;7.082;2023-03-13T15:30:42;9.40;;;1.80;;
52456;SDS011;38369;52.840;7.082;2023-03-13T15:33:15;7.47;;;2.42;;
52456;SDS011;38369;52.840;7.082;2023-03-13T15:35:42;11.57;;;2.85;;
52456;SDS011;38369;52.840;7.082;2023-03-13T15:38:10;10.13;;;2.40;;
52456;SDS011;38369;52.840;7.082;2023-03-13T15:40:37;11.15;;;1.85;;
52456;SDS011;38369;52.840;7.082;2023-03-13T15:43:03;11.35;;;2.22;;
52456;SDS011;38369;52.840;7.082;2023-03-13T15:45:29;10.75;;;3.03;;
52456;SDS011;38369;52.840;7.082;2023-03-13T15:47:55;12.88;;;3.10;;
52456;SDS011;38369;52.840;7.082;2023-03-13T15:50:21;11.55;;;2.78;;
52456;SDS011;38369;52.840;7.082;2023-03-13T15:52:53;8.27;;;2.15;;
52456;SDS011;38369;52.840;7.082;2023-03-13T15:55:19;9.20;;;1.95;;
52456;SDS011;38369;52.840;7.082;2023-03-13T15:57:47;14.75;;;3.08;;
52456;SDS011;38369;52.840;7.082;2023-03-13T16:02:40;11.00;;;2.55;;
52456;SDS011;38369;52.840;7.082;2023-03-13T16:05:07;12.10;;;3.03;;
52456;SDS011;38369;52.840;7.082;2023-03-13T16:07:34;16.33;;;2.90;;
52456;SDS011;38369;52.840;7.082;2023-03-13T16:10:00;13.55;;;2.88;;
52456;SDS011;38369;52.840;7.082;2023-03-13T16:12:26;16.85;;;3.95;;
52456;SDS011;38369;52.840;7.082;2023-03-13T16:14:52;13.15;;;2.58;;
52456;SDS011;38369;52.840;7.082;2023-03-13T16:17:18;11.45;;;2.70;;
52456;SDS011;38369;52.840;7.082;2023-03-13T16:19:46;13.07;;;2.65;;
52456;SDS011;38369;52.840;7.082;2023-03-13T16:22:12;12.50;;;3.50;;
52456;SDS011;38369;52.840;7.082;2023-03-13T16:24:38;12.05;;;2.67;;
52456;SDS011;38369;52.840;7.082;2023-03-13T16:27:12;11.95;;;3.20;;
52456;SDS011;38369;52.840;7.082;2023-03-13T16:29:38;15.23;;;4.03;;
52456;SDS011;38369;52.840;7.082;2023-03-13T16:32:05;13.88;;;3.30;;
52456;SDS011;38369;52.840;7.082;2023-03-13T16:34:31;18.27;;;3.70;;
52456;SDS011;38369;52.840;7.082;2023-03-13T16:36:57;12.93;;;2.65;;